Time;durP1;ratioP1;P1;durP2;ratioP2;P2;SDS_P1;SDS_P2;PMS_P1;PMS_P2;Temp;Humidity;BMP_temperature;BMP_pressure;BME280_temperature;BME280_humidity;BME280_pressure;Samples;Min_cycle;Max_cycle;Signal;HPM_P1;HPM_P2
2022/08/13 00:01:15;;;;;;;3.85;1.25;;;;;;;19.84;43.67;99109.59;5227170;28;20044;-69
2022/08/13 00:04:08;;;;;;;3.03;1.45;;;;;;;19.70;44.14;99109.53;5212492;28;20690;-69
2022/08/13 00:09:50;;;;;;;2.00;1.33;;;;;;;19.40;43.29;99070.44;5233950;28;20051;-69
2022/08/13 00:13:00;;;;;;;5.18;1.30;;;;;;;19.59;43.18;99075.09;5208673;28;20138;-69
2022/08/13 00:15:51;;;;;;;2.00;1.52;;;;;;;19.89;42.58;99072.13;5226654;28;20063;-68
2022/08/13 00:18:45;;;;;;;1.50;1.30;;;;;;;20.04;42.32;99061.22;5211625;28;20056;-68
2022/08/13 00:21:36;;;;;;;1.20;1.10;;;;;;;20.01;42.04;99070.50;5220055;28;20349;-69
2022/08/13 00:24:46;;;;;;;6.10;1.52;;;;;;;19.95;42.48;99085.59;5226927;22;20045;-72
2022/08/13 00:27:47;;;;;;;2.55;1.30;;;;;;;20.14;41.91;99077.81;5218856;28;20067;-72
2022/08/13 00:30:53;;;;;;;4.25;1.50;;;;;;;20.31;41.52;99079.06;5210896;28;20064;-73
2022/08/13 00:33:43;;;;;;;2.85;1.20;;;;;;;20.38;41.88;99079.09;5227354;28;20162;-72
2022/08/13 00:36:37;;;;;;;;;;;;;;;20.40;41.93;99075.16;5209954;28;20045;-72
2022/08/13 00:39:28;;;;;;;2.40;1.55;;;;;;;20.21;42.23;99069.75;5212263;28;19936;-72
2022/08/13 00:42:38;;;;;;;2.40;1.30;;;;;;;20.17;42.24;99048.59;5223076;28;20052;-72
2022/08/13 00:45:41;;;;;;;2.33;1.23;;;;;;;20.41;42.28;99068.72;5224060;28;20071;-73
2022/08/13 00:48:43;;;;;;;6.22;1.40;;;;;;;20.23;41.99;99040.72;5229178;28;20053;-73
2022/08/13 00:51:42;;;;;;;1.33;1.23;;;;;;;20.32;42.37;99069.94;5218256;28;20102;-72
2022/08/13 00:54:49;;;;;;;2.88;1.58;;;;;;;20.06;42.67;99046.50;5213446;28;20111;-72
2022/08/13 00:57:49;;;;;;;5.45;1.50;;;;;;;20.06;43.22;99062.66;5221395;28;20151;-72
2022/08/13 01:00:47;;;;;;;2.03;1.40;;;;;;;20.21;42.72;99054.41;5222135;28;20060;-73
2022/08/13 01:03:38;;;;;;;1.92;1.40;;;;;;;20.22;42.67;99060.63;5226351;28;20486;-72
2022/08/13 01:06:48;;;;;;;2.35;1.30;;;;;;;19.93;42.91;99030.31;5224789;28;20052;-72
2022/08/13 01:09:41;;;;;;;2.95;1.50;;;;;;;20.01;43.34;99053.53;5224652;28;20049;-73
2022/08/13 01:12:53;;;;;;;1.98;1.50;;;;;;;19.88;43.60;99041.69;5226110;28;20056;-72
2022/08/13 01:15:45;;;;;;;4.45;1.40;;;;;;;20.07;42.96;99060.81;5222463;28;20639;-73
2022/08/13 01:18:48;;;;;;;2.42;1.33;;;;;;;19.82;43.45;99065.91;5223936;28;20071;-72
2022/08/13 01:21:42;;;;;;;1.23;1.17;;;;;;;19.63;43.98;99068.28;5210590;28;20498;-72
2022/08/13 01:24:32;;;;;;;2.33;1.70;;;;;;;19.65;44.17;99068.94;5226739;28;20363;-72
2022/08/13 01:27:26;;;;;;;1.90;1.50;;;;;;;19.46;44.73;99075.00;5229568;28;20441;-72
2022/08/13 01:30:23;;;;;;;5.40;1.48;;;;;;;19.31;45.28;99074.34;5222857;28;20048;-72
2022/08/13 01:33:17;;;;;;;1.60;1.50;;;;;;;19.23;45.20;99068.06;5210390;28;20566;-72
2022/08/13 01:36:08;;;;;;;2.25;1.75;;;;;;;18.95;46.18;99059.22;5208689;28;20218;-72
2022/08/13 01:39:07;;;;;;;1.95;1.65;;;;;;;18.86;45.72;99065.75;5227358;28;20056;-72
2022/08/13 01:42:20;;;;;;;1.52;1.40;;;;;;;18.67;47.55;99061.84;5222167;28;20540;-72
2022/08/13 01:45:22;;;;;;;2.10;1.52;;;;;;;18.59;48.24;99075.44;5214439;28;20051;-72
2022/08/13 01:51:28;;;;;;;4.75;1.25;;;;;;;18.35;48.54;99068.59;5225001;28;20055;-72
2022/08/13 01:54:30;;;;;;;2.10;1.63;;;;;;;18.53;47.65;99060.91;5226146;28;20071;-72
2022/08/13 01:57:34;;;;;;;2.67;1.60;;;;;;;18.53;47.94;99064.41;5210313;28;20048;-72
2022/08/13 02:00:35;;;;;;;5.82;1.63;;;;;;;18.45;47.96;99064.56;5222592;28;20080;-72
2022/08/13 02:03:30;;;;;;;3.88;1.48;;;;;;;18.28;48.48;99069.38;5223220;28;20139;-72
2022/08/13 02:06:30;;;;;;;3.75;1.58;;;;;;;18.15;49.16;99065.72;5221340;28;20531;-72
2022/08/13 02:09:25;;;;;;;2.25;1.52;;;;;;;17.97;49.01;99052.72;5206083;28;20063;-73
2022/08/13 02:12:36;;;;;;;3.35;1.58;;;;;;;17.95;48.69;99060.97;5222104;28;20045;-73
2022/08/13 02:15:26;;;;;;;3.20;1.70;;;;;;;17.85;49.06;99055.09;5221968;28;20079;-72
2022/08/13 02:18:31;;;;;;;2.30;1.60;;;;;;;18.01;48.48;99062.03;5223216;28;20059;-72
2022/08/13 02:21:22;;;;;;;3.35;1.60;;;;;;;17.75;48.77;99047.31;5230416;28;20051;-72
2022/08/13 02:24:14;;;;;;;3.25;1.50;;;;;;;17.77;49.74;99073.97;5220365;28;20126;-72
2022/08/13 02:27:11;;;;;;;2.40;1.77;;;;;;;17.71;50.09;99069.31;5221276;28;20048;-72
2022/08/13 02:30:03;;;;;;;2.70;1.85;;;;;;;17.76;50.18;99077.63;5224171;28;20418;-72
2022/08/13 02:32:55;;;;;;;2.65;1.73;;;;;;;17.45;50.50;99075.16;5219601;28;20052;-72
2022/08/13 02:35:46;;;;;;;1.70;1.50;;;;;;;17.44;50.66;99070.81;5222255;28;20045;-72
2022/08/13 02:38:37;;;;;;;1.60;1.50;;;;;;;17.63;50.13;99064.06;5222797;28;20079;-72
2022/08/13 02:41:38;;;;;;;2.40;2.00;;;;;;;17.45;50.57;99077.84;5222007;28;20052;-73
2022/08/13 02:44:40;;;;;;;2.50;2.00;;;;;;;17.48;50.70;99082.84;5221857;28;20084;-72
2022/08/13 02:47:32;;;;;;;3.10;1.65;;;;;;;17.26;51.15;99082.75;5211242;28;20488;-72
2022/08/13 02:50:42;;;;;;;3.63;1.70;;;;;;;17.22;51.11;99084.16;5222767;28;20063;-72
2022/08/13 02:53:35;;;;;;;2.33;1.80;;;;;;;17.19;51.13;99068.44;5225401;28;20514;-72
2022/08/13 02:56:26;;;;;;;4.85;1.77;;;;;;;17.15;51.91;99091.22;5222704;28;20056;-72
2022/08/13 02:59:17;;;;;;;1.73;1.63;;;;;;;17.14;51.92;99084.22;5222003;28;20131;-72
2022/08/13 03:02:28;;;;;;;2.03;1.75;;;;;;;17.12;50.55;99076.38;5222841;28;20064;-72
2022/08/13 03:05:19;;;;;;;2.58;1.88;;;;;;;17.40;50.72;99083.78;5227119;28;20486;-72
2022/08/13 03:08:11;;;;;;;2.70;2.03;;;;;;;16.99;51.90;99078.03;5225833;28;20159;-72
2022/08/13 03:11:21;;;;;;;1.90;1.70;;;;;;;17.01;52.25;99081.34;5224279;28;20059;-72
2022/08/13 03:14:12;;;;;;;2.20;2.00;;;;;;;16.97;52.08;99080.06;5223360;28;20057;-72
2022/08/13 03:17:02;;;;;;;2.10;1.90;;;;;;;16.84;52.56;99084.19;5221800;28;20061;-72
2022/08/13 03:19:53;;;;;;;2.90;1.92;;;;;;;16.87;52.29;99074.97;5225071;28;20045;-72
2022/08/13 03:22:50;;;;;;;2.20;1.88;;;;;;;16.98;52.25;99073.69;5224951;28;20048;-72
2022/08/13 03:25:42;;;;;;;3.33;2.10;;;;;;;16.84;52.30;99081.50;5220645;28;20064;-72
2022/08/13 03:28:32;;;;;;;2.25;2.00;;;;;;;16.77;52.70;99075.22;5219238;28;20119;-72
2022/08/13 03:31:24;;;;;;;3.95;2.00;;;;;;;16.36;54.13;99054.13;5219562;28;20415;-72
2022/08/13 03:34:20;;;;;;;3.88;2.00;;;;;;;16.31;54.23;99066.38;5224292;28;20075;-72
2022/08/13 03:37:11;;;;;;;1.98;1.80;;;;;;;16.28;53.69;99062.22;5222687;28;20183;-72
2022/08/13 03:40:04;;;;;;;2.10;1.90;;;;;;;16.38;54.18;99067.31;5222683;28;20411;-72
2022/08/13 03:43:07;;;;;;;3.58;2.20;;;;;;;16.65;52.78;99061.41;5210496;28;20056;-72
2022/08/13 03:46:05;;;;;;;2.10;1.90;;;;;;;16.60;52.75;99079.03;5223317;28;20041;-72
2022/08/13 03:48:55;;;;;;;2.35;2.15;;;;;;;16.55;53.48;99086.75;5219198;28;20182;-72
2022/08/13 03:51:45;;;;;;;2.47;1.77;;;;;;;16.45;53.86;99085.16;5222536;28;20498;-72
2022/08/13 03:54:38;;;;;;;3.67;1.83;;;;;;;16.30;54.08;99092.31;5222996;28;20061;-72
2022/08/13 03:57:28;;;;;;;3.38;2.05;;;;;;;16.34;54.31;99080.22;5223572;28;20182;-72
2022/08/13 04:00:18;;;;;;;3.03;2.20;;;;;;;16.53;54.01;99084.28;5225156;28;20149;-72
2022/08/13 04:03:16;;;;;;;2.75;2.15;;;;;;;16.48;54.49;99080.47;5205957;28;20522;-72
2022/08/13 04:06:15;;;;;;;2.83;2.13;;;;;;;16.14;55.00;99073.69;5224743;28;20076;-72
2022/08/13 04:09:05;;;;;;;2.97;2.17;;;;;;;16.29;54.39;99069.25;5220946;28;20492;-72
2022/08/13 04:12:09;;;;;;;3.15;2.30;;;;;;;16.31;54.10;99087.78;5221771;28;20433;-72
2022/08/13 04:15:00;;;;;;;4.57;2.00;;;;;;;16.12;54.54;99070.34;5225836;28;20052;-73
2022/08/13 04:17:52;;;;;;;4.63;2.25;;;;;;;16.19;55.00;99080.19;5209631;28;20060;-73
2022/08/13 04:20:54;;;;;;;3.00;2.25;;;;;;;16.27;54.77;99075.78;5217545;28;20049;-72
2022/08/13 04:23:50;;;;;;;2.45;2.13;;;;;;;16.12;55.52;99075.69;5221565;28;20111;-73
2022/08/13 04:26:47;;;;;;;5.07;2.40;;;;;;;16.08;55.57;99063.69;5223679;28;20444;-73
2022/08/13 04:29:39;;;;;;;2.60;2.30;;;;;;;16.10;55.23;99073.22;5217541;28;20521;-72
2022/08/13 04:32:42;;;;;;;3.95;2.22;;;;;;;16.02;56.43;99072.41;5221992;28;20048;-73
2022/08/13 04:35:47;;;;;;;2.72;2.20;;;;;;;16.02;56.02;99065.22;5225267;28;20059;-73
2022/08/13 04:38:43;;;;;;;2.50;2.30;;;;;;;16.05;56.33;99074.75;5220828;28;20075;-73
2022/08/13 04:41:33;;;;;;;4.07;2.53;;;;;;;16.08;56.20;99079.75;5219700;28;20049;-72
2022/08/13 04:44:28;;;;;;;3.00;2.28;;;;;;;15.93;56.49;99087.69;5230926;28;20056;-73
2022/08/13 04:47:18;;;;;;;3.78;2.47;;;;;;;16.18;56.13;99080.34;5225851;28;20064;-73
2022/08/13 04:50:11;;;;;;;3.92;2.70;;;;;;;16.03;56.95;99079.47;5229434;28;20053;-73
2022/08/13 04:53:09;;;;;;;3.03;2.58;;;;;;;15.89;56.32;99071.19;5224929;28;20060;-73
2022/08/13 04:56:01;;;;;;;2.33;2.13;;;;;;;15.82;55.95;99086.22;5222375;28;20155;-73
2022/08/13 04:59:08;;;;;;;3.05;2.35;;;;;;;15.80;56.79;99077.56;5210851;28;20045;-73
2022/08/13 05:02:08;;;;;;;6.32;2.40;;;;;;;16.03;57.21;99087.47;5224029;28;20049;-73
2022/08/13 05:04:58;;;;;;;3.03;2.28;;;;;;;16.19;56.56;99093.56;5221882;28;20132;-73
2022/08/13 05:07:51;;;;;;;4.45;3.30;;;;;;;16.11;57.52;99092.75;5224645;28;20102;-73
2022/08/13 05:10:44;;;;;;;3.20;2.88;;;;;;;16.47;57.03;99101.03;5221711;28;20048;-73
2022/08/13 05:13:36;;;;;;;4.10;2.97;;;;;;;16.44;56.76;99106.75;5223349;28;20041;-72
2022/08/13 05:16:32;;;;;;;7.65;2.85;;;;;;;16.34;57.37;99106.16;5227951;28;20418;-72
2022/08/13 05:19:22;;;;;;;2.95;2.65;;;;;;;16.41;57.27;99102.59;5225029;28;20045;-72
2022/08/13 05:22:13;;;;;;;5.38;2.78;;;;;;;16.54;57.12;99101.16;5230184;28;20036;-72
2022/08/13 05:25:19;;;;;;;3.28;2.70;;;;;;;16.72;56.23;99107.03;5224356;28;20752;-72
2022/08/13 05:28:31;;;;;;;4.30;3.13;;;;;;;16.86;55.81;99090.19;5222078;28;20658;-72
2022/08/13 05:31:22;;;;;;;8.13;3.30;;;;;;;16.97;56.00;99096.13;5226240;28;20055;-73
2022/08/13 05:34:12;;;;;;;4.90;3.00;;;;;;;16.71;56.28;99096.50;5208680;28;20565;-72
2022/08/13 05:37:06;;;;;;;8.60;3.22;;;;;;;16.73;56.07;99108.69;5225438;28;20589;-73
2022/08/13 05:40:16;;;;;;;5.05;2.67;;;;;;;16.88;54.58;99096.19;5223531;28;20610;-72
2022/08/13 05:43:29;;;;;;;5.88;2.72;;;;;;;17.02;53.90;99112.47;5219454;28;20561;-72
2022/08/13 05:46:24;;;;;;;4.90;2.33;;;;;;;17.05;54.54;99115.66;5214400;28;20112;-72
2022/08/13 05:49:23;;;;;;;5.82;2.75;;;;;;;17.27;53.32;99121.94;5226023;28;20055;-73
2022/08/13 05:52:34;;;;;;;5.95;2.55;;;;;;;17.27;53.24;99118.44;5220523;28;20186;-72
2022/08/13 05:55:40;;;;;;;4.25;2.80;;;;;;;17.37;53.00;99114.44;5225781;28;20051;-72
2022/08/13 05:58:51;;;;;;;9.43;2.70;;;;;;;17.47;52.99;99105.31;5217069;28;20056;-72
2022/08/13 06:04:52;;;;;;;3.00;2.22;;;;;;;17.80;52.06;99098.56;5221140;28;20114;-72
2022/08/13 06:07:48;;;;;;;3.08;2.50;;;;;;;18.03;51.06;99101.09;5224843;28;20092;-73
2022/08/13 06:10:41;;;;;;;2.38;2.17;;;;;;;17.76;52.57;99094.59;5224644;28;20079;-72
2022/08/13 06:13:35;;;;;;;3.42;2.60;;;;;;;18.01;52.02;99099.59;5225547;28;20182;-68
2022/08/13 06:16:51;;;;;;;3.80;2.60;;;;;;;18.03;52.05;99098.41;5222739;28;20056;-69
2022/08/13 06:19:45;;;;;;;4.07;2.47;;;;;;;18.30;51.47;99104.88;5208316;28;20049;-72
2022/08/13 06:22:42;;;;;;;5.22;2.40;;;;;;;18.62;50.13;99107.28;5222692;28;20056;-72
2022/08/13 06:25:35;;;;;;;2.80;2.53;;;;;;;18.61;51.03;99111.81;5222252;28;20049;-72
2022/08/13 06:28:46;;;;;;;4.07;2.72;;;;;;;18.62;50.97;99094.66;5222805;28;20060;-72
2022/08/13 06:31:39;;;;;;;2.47;2.15;;;;;;;18.71;49.95;99101.56;5204616;28;20134;-72
2022/08/13 06:34:36;;;;;;;6.68;2.50;;;;;;;19.16;49.72;99109.38;5219024;28;20053;-73
2022/08/13 06:37:29;;;;;;;2.55;2.20;;;;;;;19.09;49.45;99095.88;5207201;28;20499;-71
2022/08/13 06:40:35;;;;;;;3.80;2.15;;;;;;;19.15;49.45;99100.47;5226185;28;20063;-72
2022/08/13 06:43:36;;;;;;;5.53;2.67;;;;;;;19.23;49.84;99116.44;5222258;28;20879;-72
2022/08/13 06:46:38;;;;;;;4.10;2.10;;;;;;;19.27;49.80;99116.06;5224053;28;20075;-73
2022/08/13 06:49:37;;;;;;;4.35;2.15;;;;;;;19.47;48.89;99115.16;5201497;28;20125;-73
2022/08/13 06:52:47;;;;;;;3.15;2.15;;;;;;;19.70;49.23;99124.81;5221346;28;20041;-72
2022/08/13 06:55:58;;;;;;;6.25;2.00;;;;;;;19.92;48.38;99118.28;5219736;28;20442;-70
2022/08/13 06:59:12;;;;;;;5.75;2.13;;;;;;;19.88;48.81;99129.69;5217630;28;20084;-73
2022/08/13 07:02:08;;;;;;;2.55;2.00;;;;;;;20.05;49.25;99124.78;5217932;28;20055;-73
2022/08/13 07:05:01;;;;;;;5.25;2.13;;;;;;;20.17;47.41;99121.28;5221191;28;20485;-73
2022/08/13 07:07:59;;;;;;;4.43;1.98;;;;;;;20.43;47.26;99117.00;5218149;28;20198;-73
2022/08/13 07:14:06;;;;;;;3.65;2.10;;;;;;;20.76;45.23;99106.31;5216532;28;20420;-72
2022/08/13 07:17:02;;;;;;;5.25;2.20;;;;;;;20.99;44.96;99110.44;5219668;28;20178;-72
2022/08/13 07:19:53;;;;;;;3.47;1.95;;;;;;;21.10;45.45;99107.94;5223344;28;20072;-71
2022/08/13 07:22:57;;;;;;;3.65;2.13;;;;;;;21.36;44.48;99125.16;5208571;28;20495;-71
2022/08/13 07:26:09;;;;;;;4.10;1.98;;;;;;;21.27;45.64;99110.19;5204984;28;20044;-72
2022/08/13 07:29:05;;;;;;;2.30;2.10;;;;;;;21.84;44.73;99118.59;5208840;28;20530;-69
2022/08/13 07:32:00;;;;;;;3.80;2.03;;;;;;;22.20;44.09;99105.34;5220853;28;20082;-70
2022/08/13 07:34:58;;;;;;;6.97;2.42;;;;;;;22.44;42.19;99090.22;5221232;28;20138;-72
2022/08/13 07:37:52;;;;;;;2.28;2.08;;;;;;;23.42;40.33;99113.16;5209271;28;20531;-74
2022/08/13 07:40:50;;;;;;;2.50;1.75;;;;;;;24.59;38.88;99111.06;5202241;28;20073;-73
2022/08/13 07:43:43;;;;;;;2.47;2.00;;;;;;;26.12;36.32;99112.91;5219903;28;20142;-72
2022/08/13 07:46:53;;;;;;;2.50;1.60;;;;;;;26.46;34.52;99035.00;5223335;28;20621;-75
2022/08/13 07:49:48;;;;;;;5.57;1.70;;;;;;;27.67;33.30;99104.34;5206664;28;20170;-72
2022/08/13 07:52:38;;;;;;;4.63;1.73;;;;;;;28.75;32.06;99108.00;5207712;28;20048;-71
2022/08/13 07:55:29;;;;;;;2.15;1.95;;;;;;;28.27;31.99;99092.50;5218793;28;20048;-74
2022/08/13 07:58:39;;;;;;;2.10;1.75;;;;;;;28.92;32.16;99096.97;5218925;28;20057;-74
2022/08/13 08:01:42;;;;;;;3.72;1.88;;;;;;;29.84;30.11;99089.34;5223548;28;20045;-74
2022/08/13 08:04:56;;;;;;;2.58;1.60;;;;;;;29.90;30.07;99091.03;5215369;28;20568;-73
2022/08/13 08:07:48;;;;;;;1.70;1.60;;;;;;;30.57;30.01;99089.28;5213433;28;20041;-73
2022/08/13 08:10:56;;;;;;;6.70;1.63;;;;;;;30.32;29.65;99098.25;5217025;28;20132;-71
2022/08/13 08:13:48;;;;;;;4.55;1.60;;;;;;;30.78;29.38;99094.78;5192057;28;20063;-73
2022/08/13 08:16:44;;;;;;;2.78;1.75;;;;;;;30.36;29.58;99088.41;5209077;22;20415;-80
2022/08/13 08:19:37;;;;;;;3.80;1.70;;;;;;;30.29;30.33;99082.38;5206926;28;20060;-79
2022/08/13 08:22:50;;;;;;;1.80;1.70;;;;;;;31.27;30.00;99091.44;5179957;28;20054;-79
2022/08/13 08:25:45;;;;;;;2.13;1.70;;;;;;;31.77;27.55;99078.69;5184735;28;20129;-79
2022/08/13 08:28:55;;;;;;;2.35;1.60;;;;;;;31.59;28.39;99094.69;5186232;28;20046;-80
2022/08/13 08:31:45;;;;;;;2.70;1.90;;;;;;;31.56;27.47;99087.00;5175249;28;20050;-80
2022/08/13 08:34:51;;;;;;;5.63;1.60;;;;;;;31.67;28.01;99089.72;5190903;28;20086;-80
2022/08/13 08:44:03;;;;;;;2.22;1.40;;;;;;;31.92;28.14;99086.91;5188147;28;20625;-80
2022/08/13 08:46:57;;;;;;;3.67;1.70;;;;;;;31.59;27.62;99089.19;5170619;28;20185;-80
2022/08/13 08:49:48;;;;;;;2.95;1.50;;;;;;;31.38;27.81;99086.78;5188062;28;20442;-80
2022/08/13 08:56:28;;;;;;;3.63;2.03;;;;;;;31.56;27.78;99091.69;5185727;28;20097;-83
2022/08/13 08:59:41;;;;;;;3.73;1.73;;;;;;;31.92;28.08;99089.66;5183673;28;20049;-80
2022/08/13 09:02:45;;;;;;;5.82;1.80;;;;;;;32.38;26.73;99086.59;5182022;28;20303;-79
2022/08/13 09:05:37;;;;;;;4.90;1.70;;;;;;;32.58;26.95;99080.19;5181782;28;20132;-78
2022/08/13 09:08:36;;;;;;;1.83;1.67;;;;;;;31.93;26.56;99077.56;5182799;28;20496;-78
2022/08/13 09:11:34;;;;;;;1.50;1.40;;;;;;;32.26;26.73;99081.47;5168460;28;20054;-80
2022/08/13 09:14:31;;;;;;;;;;;;;;;31.89;26.18;99092.94;5167930;28;20048;-78
2022/08/13 09:17:23;;;;;;;2.47;1.60;;;;;;;31.42;27.45;99068.69;5186382;28;19921;-79
2022/08/13 09:20:28;;;;;;;2.58;1.50;;;;;;;32.73;26.33;99080.06;5184609;28;20050;-80
2022/08/13 09:23:21;;;;;;;2.75;1.40;;;;;;;33.17;25.76;99075.56;5180307;28;20049;-78
2022/08/13 09:26:32;;;;;;;3.03;1.55;;;;;;;34.08;24.73;99051.69;5173270;28;20049;-79
2022/08/13 09:29:23;;;;;;;1.50;1.40;;;;;;;34.55;25.94;99049.06;5166952;28;20184;-80
2022/08/13 09:32:14;;;;;;;4.10;1.60;;;;;;;33.82;23.47;99044.88;5169962;28;20100;-79
2022/08/13 09:35:26;;;;;;;6.25;1.50;;;;;;;34.30;23.21;99036.50;5183886;28;20053;-78
2022/08/13 09:38:26;;;;;;;2.53;1.67;;;;;;;35.09;24.05;99063.31;5170591;28;20633;-77
2022/08/13 09:41:27;;;;;;;2.08;1.33;;;;;;;34.36;23.87;99060.88;5184269;28;20061;-79
2022/08/13 09:44:20;;;;;;;2.80;1.20;;;;;;;34.41;22.84;99037.97;5189116;28;20132;-80
2022/08/13 09:47:13;;;;;;;3.20;1.30;;;;;;;34.29;22.18;99037.63;5183403;28;20562;-81
2022/08/13 09:50:25;;;;;;;4.68;1.45;;;;;;;34.09;22.55;99039.56;5165182;28;20136;-81
2022/08/13 09:53:16;;;;;;;5.07;1.38;;;;;;;34.63;22.27;99026.34;5190035;28;20046;-80
2022/08/13 09:56:08;;;;;;;2.63;1.27;;;;;;;34.77;22.45;99037.38;5180117;28;20149;-78
2022/08/13 09:59:00;;;;;;;1.83;1.23;;;;;;;34.02;22.33;99010.78;5181181;28;20056;-79
2022/08/13 10:01:55;;;;;;;1.30;1.20;;;;;;;34.33;22.45;99028.44;5181785;28;20778;-79
2022/08/13 10:04:52;;;;;;;2.97;1.40;;;;;;;34.07;22.53;99022.56;5172395;28;20491;-79
2022/08/13 10:07:42;;;;;;;2.95;1.33;;;;;;;34.97;22.33;99019.69;5164580;28;20428;-79
2022/08/13 10:10:38;;;;;;;1.95;1.30;;;;;;;34.60;22.34;99004.91;5161964;28;20128;-79
2022/08/13 10:13:29;;;;;;;1.90;1.27;;;;;;;34.93;20.93;99029.66;5152404;28;20115;-81
2022/08/13 10:16:39;;;;;;;3.20;1.60;;;;;;;34.43;22.24;99016.47;5184101;28;20053;-80
2022/08/13 10:19:31;;;;;;;2.40;1.13;;;;;;;33.47;21.94;99005.69;5186772;28;20051;-79
2022/08/13 10:22:24;;;;;;;2.97;1.10;;;;;;;34.13;21.48;99018.56;5202365;28;20046;-80
2022/08/13 10:25:22;;;;;;;1.30;1.17;;;;;;;33.41;21.65;99023.34;5174608;28;20558;-79
2022/08/13 10:28:24;;;;;;;1.35;1.27;;;;;;;35.13;21.88;99023.00;5156768;28;20139;-80
2022/08/13 10:31:27;;;;;;;1.65;1.38;;;;;;;34.21;20.69;99014.34;5184105;28;20048;-78
2022/08/13 10:34:43;;;;;;;1.13;1.00;;;;;;;34.26;21.65;99011.50;5175581;28;20042;-78
2022/08/13 10:37:54;;;;;;;1.55;1.30;;;;;;;34.74;21.40;99024.25;5167261;28;20558;-78
2022/08/13 10:40:49;;;;;;;2.45;1.00;;;;;;;34.40;20.87;99000.53;5182797;28;20191;-78
2022/08/13 10:43:42;;;;;;;5.03;1.40;;;;;;;34.03;21.53;98996.72;5178636;28;20045;-77
2022/08/13 10:46:46;;;;;;;;;;;;;;;33.16;22.77;99013.50;5180173;28;20072;-78
2022/08/13 10:49:37;;;;;;;2.28;1.30;;;;;;;34.16;21.60;98991.59;5184033;28;20066;-78
2022/08/13 10:52:27;;;;;;;2.20;1.30;;;;;;;33.41;22.09;98998.63;5190677;28;20044;-79
2022/08/13 10:55:35;;;;;;;5.78;1.90;;;;;;;32.65;22.43;98997.50;5181372;28;20124;-80
2022/08/13 10:58:27;;;;;;;1.25;1.15;;;;;;;32.25;22.47;99000.28;5182985;28;20064;-78
2022/08/13 11:01:35;;;;;;;2.63;1.10;;;;;;;32.75;22.88;98990.00;5177544;28;20038;-79
2022/08/13 11:04:29;;;;;;;3.20;1.45;;;;;;;33.15;22.47;98971.47;5184422;28;20136;-79
2022/08/13 11:07:21;;;;;;;5.05;1.60;;;;;;;33.37;22.08;98981.91;5150708;28;21746;-80
2022/08/13 11:10:12;;;;;;;10.65;3.80;;;;;;;33.41;21.82;98996.72;5170783;28;20076;-80
2022/08/13 11:13:05;;;;;;;1.98;1.27;;;;;;;31.86;22.71;98985.72;5187546;28;20526;-79
2022/08/13 11:16:44;;;;;;;2.33;1.33;;;;;;;32.12;22.87;98989.13;5148181;28;20204;-78
2022/08/13 11:19:20;;;;;;;5.18;1.40;;;;;;;33.08;21.73;98990.25;5183492;28;20590;-78
2022/08/13 11:22:11;;;;;;;7.50;2.80;;;;;;;32.29;22.72;98976.66;5159885;28;20064;-80
2022/08/13 11:25:15;;;;;;;1.17;1.02;;;;;;;32.75;22.75;98954.31;5179142;28;20041;-80
2022/08/13 11:28:25;;;;;;;2.08;1.35;;;;;;;33.47;21.90;98969.16;5185223;28;20503;-79
2022/08/13 11:31:16;;;;;;;1.35;1.25;;;;;;;32.17;21.78;98983.63;5181366;28;20539;-81
2022/08/13 11:34:17;;;;;;;1.70;1.60;;;;;;;32.46;22.98;98978.19;5155078;28;20132;-80
2022/08/13 11:37:08;;;;;;;1.73;1.20;;;;;;;32.90;21.05;98949.75;5178702;28;20054;-80
2022/08/13 11:40:03;;;;;;;1.55;1.33;;;;;;;32.56;22.16;98974.53;5182988;28;20053;-80
2022/08/13 11:43:14;;;;;;;3.03;1.25;;;;;;;32.94;21.47;98957.09;5183021;28;20045;-79
2022/08/13 11:46:07;;;;;;;1.35;1.25;;;;;;;32.74;21.92;98949.91;5157461;28;20052;-80
2022/08/13 11:48:58;;;;;;;4.25;1.38;;;;;;;33.20;20.76;98943.91;5186558;28;20073;-80
2022/08/13 11:52:00;;;;;;;2.00;1.30;;;;;;;32.79;21.36;98956.47;5186461;28;20133;-80
2022/08/13 11:54:50;;;;;;;2.75;1.17;;;;;;;32.29;22.28;98946.47;5186632;28;20093;-80
2022/08/13 11:57:44;;;;;;;3.83;1.08;;;;;;;32.23;22.84;98947.63;5185245;28;20045;-79
2022/08/13 12:00:38;;;;;;;2.20;1.15;;;;;;;32.26;21.19;98955.28;5173966;28;20072;-79
2022/08/13 12:03:28;;;;;;;1.10;0.90;;;;;;;31.58;21.68;98938.72;5188058;28;20521;-80
2022/08/13 12:06:41;;;;;;;2.30;1.25;;;;;;;32.37;22.44;98925.81;5169832;28;20054;-79
2022/08/13 12:09:37;;;;;;;1.27;1.17;;;;;;;32.80;22.46;98923.22;5175307;28;20148;-80
2022/08/13 12:12:38;;;;;;;2.55;1.20;;;;;;;33.04;21.85;98920.50;5186416;28;20069;-79
2022/08/13 12:15:29;;;;;;;4.63;1.17;;;;;;;33.13;21.61;98929.72;5173328;28;20056;-80
2022/08/13 12:18:39;;;;;;;2.20;1.20;;;;;;;32.66;21.06;98936.81;5179473;28;20454;-79
2022/08/13 12:21:34;;;;;;;8.52;1.00;;;;;;;31.99;21.38;98916.56;5172813;28;20523;-80
2022/08/13 12:24:32;;;;;;;4.15;1.10;;;;;;;30.54;21.18;98924.81;5189394;28;20045;-81
2022/08/13 12:27:23;;;;;;;3.28;0.90;;;;;;;31.06;21.78;98923.59;5177867;28;20049;-80
2022/08/13 12:30:14;;;;;;;1.42;1.00;;;;;;;31.95;21.90;98924.53;5184801;28;20065;-80
2022/08/13 12:33:13;;;;;;;1.60;1.08;;;;;;;32.25;21.06;98939.94;5179623;28;20639;-79
2022/08/13 12:36:09;;;;;;;1.05;1.00;;;;;;;32.01;21.37;98931.59;5193846;28;20049;-80
2022/08/13 12:39:06;;;;;;;1.25;1.15;;;;;;;32.23;21.49;98914.69;5195058;28;20046;-79
2022/08/13 12:41:56;;;;;;;1.00;0.95;;;;;;;32.09;21.48;98927.44;5174341;28;20048;-79
2022/08/13 12:44:47;;;;;;;2.65;1.23;;;;;;;31.95;21.60;98910.00;5173178;28;20084;-79
2022/08/13 12:48:03;;;;;;;1.63;1.10;;;;;;;32.48;21.20;98904.59;5191881;28;20046;-79
2022/08/13 12:50:54;;;;;;;1.15;1.02;;;;;;;31.84;22.15;98895.53;5186621;28;20072;-80
2022/08/13 12:53:46;;;;;;;1.50;1.40;;;;;;;30.91;22.89;98902.59;5189789;28;20137;-81
2022/08/13 12:56:49;;;;;;;1.80;1.05;;;;;;;31.28;22.77;98906.81;5188582;28;20057;-79
2022/08/13 12:59:41;;;;;;;1.58;1.20;;;;;;;31.71;22.59;98888.75;5169656;28;20049;-79
2022/08/13 13:02:51;;;;;;;1.52;1.20;;;;;;;31.99;21.38;98875.44;5179864;28;20045;-80
2022/08/13 13:05:49;;;;;;;2.28;1.00;;;;;;;32.15;22.46;98881.56;5169865;28;20057;-80
2022/08/13 13:08:44;;;;;;;1.98;1.30;;;;;;;32.50;21.29;98889.50;5171977;28;20057;-79
2022/08/13 13:11:42;;;;;;;1.40;1.30;;;;;;;31.92;21.72;98878.50;5184521;28;20061;-79
2022/08/13 13:14:41;;;;;;;1.67;1.13;;;;;;;31.31;21.94;98885.13;5176119;28;20052;-79
2022/08/13 13:17:33;;;;;;;2.35;1.27;;;;;;;31.30;22.03;98891.72;5174466;28;20065;-79
2022/08/13 13:20:45;;;;;;;1.70;1.00;;;;;;;31.68;22.20;98894.81;5189499;28;20053;-80
2022/08/13 13:23:39;;;;;;;2.03;1.10;;;;;;;31.33;22.16;98891.19;5186912;28;20082;-79
2022/08/13 13:26:51;;;;;;;1.40;1.30;;;;;;;31.87;21.18;98866.72;5190024;28;20049;-80
2022/08/13 13:29:51;;;;;;;1.88;1.13;;;;;;;31.66;21.43;98863.31;5181330;28;20531;-81
2022/08/13 13:32:43;;;;;;;1.40;1.10;;;;;;;31.88;22.56;98855.47;5177102;28;20100;-79
2022/08/13 13:35:38;;;;;;;1.30;1.20;;;;;;;32.00;22.13;98875.13;5185517;28;20787;-79
2022/08/13 13:38:49;;;;;;;1.38;1.00;;;;;;;32.13;21.80;98862.69;5185398;28;20179;-79
2022/08/13 13:41:45;;;;;;;2.28;1.25;;;;;;;32.01;21.49;98873.19;5180568;28;20060;-79
2022/08/13 13:44:44;;;;;;;3.40;1.30;;;;;;;31.74;22.43;98870.94;5182500;28;20070;-79
2022/08/13 13:47:36;;;;;;;3.53;1.10;;;;;;;31.29;22.47;98870.94;5185041;28;20168;-80
2022/08/13 13:50:28;;;;;;;5.03;1.48;;;;;;;31.59;22.25;98866.38;5167919;28;20085;-79
2022/08/13 13:53:28;;;;;;;1.25;1.15;;;;;;;31.63;21.98;98848.25;5170209;28;20069;-79
2022/08/13 13:56:27;;;;;;;1.35;1.10;;;;;;;31.81;22.10;98852.22;5168953;28;20503;-78
2022/08/13 13:59:19;;;;;;;1.15;1.05;;;;;;;31.94;21.92;98834.31;5171992;28;20050;-79
2022/08/13 14:02:26;;;;;;;1.30;1.20;;;;;;;31.85;22.37;98838.75;5191266;28;20053;-78
2022/08/13 14:05:28;;;;;;;2.15;1.60;;;;;;;31.64;22.95;98847.16;5170451;28;20157;-79
2022/08/13 14:08:39;;;;;;;3.40;1.20;;;;;;;31.26;23.20;98767.41;5187704;28;20092;-79
2022/08/13 14:11:31;;;;;;;1.75;1.17;;;;;;;31.65;22.55;98853.44;5191176;28;20658;-80
2022/08/13 14:14:39;;;;;;;1.50;1.40;;;;;;;31.43;22.66;98846.47;5179204;28;20053;-80
2022/08/13 14:17:30;;;;;;;1.20;1.02;;;;;;;31.67;22.80;98849.31;5186068;28;20076;-79
2022/08/13 14:20:22;;;;;;;1.10;1.00;;;;;;;31.63;22.28;98853.75;5191318;28;20061;-80